Time;durP1;ratioP1;P1;durP2;ratioP2;P2;SDS_P1;SDS_P2;PMS_P1;PMS_P2;Temp;Humidity;BMP_temperature;BMP_pressure;BME280_temperature;BME280_humidity;BME280_pressure;Samples;Min_cycle;Max_cycle;Signal;HPM_P1;HPM_P2
2023/01/23 00:32:16;;;;;;;14.20;5.82;;;4.20;99.90;;;;;;4923266;28;20031;-88
2023/01/23 00:34:42;;;;;;;14.67;6.03;;;4.20;99.90;;;;;;4915228;28;20419;-87
2023/01/23 00:37:08;;;;;;;13.85;5.80;;;4.20;99.90;;;;;;4902249;28;20262;-87
2023/01/23 00:39:34;;;;;;;16.77;6.20;;;4.20;99.90;;;;;;4937262;28;20023;-87
2023/01/23 00:41:59;;;;;;;13.15;5.97;;;4.20;99.90;;;;;;4906991;28;20152;-87
2023/01/23 00:44:25;;;;;;;12.73;5.70;;;4.20;99.90;;;;;;4899067;28;20022;-87
2023/01/23 00:46:51;;;;;;;15.20;6.63;;;4.30;99.90;;;;;;4924603;28;20476;-87
2023/01/23 00:49:18;;;;;;;15.90;6.60;;;4.20;99.90;;;;;;4933265;28;20019;-87
2023/01/23 00:55:07;;;;;;;16.65;6.07;;;4.30;99.90;;;;;;4933763;28;20737;-87
2023/01/23 00:57:33;;;;;;;14.48;6.15;;;4.30;99.90;;;;;;4923599;28;20031;-87
2023/01/23 01:00:01;;;;;;;15.23;6.43;;;4.30;99.90;;;;;;4888405;28;20027;-88
2023/01/23 01:02:30;;;;;;;15.07;5.93;;;4.30;99.90;;;;;;4922475;28;20031;-87
2023/01/23 01:04:56;;;;;;;15.40;6.03;;;4.30;99.90;;;;;;4903110;28;20092;-87
2023/01/23 01:07:22;;;;;;;15.10;6.03;;;4.30;99.90;;;;;;4920487;28;20379;-87
2023/01/23 01:09:48;;;;;;;17.42;6.65;;;4.30;99.90;;;;;;4916161;28;20598;-87
2023/01/23 01:12:14;;;;;;;13.73;5.57;;;4.30;99.90;;;;;;4910520;28;20317;-87
2023/01/23 01:14:39;;;;;;;14.68;6.45;;;4.30;99.90;;;;;;4934158;28;20718;-87
2023/01/23 01:17:05;;;;;;;16.10;6.90;;;4.30;99.90;;;;;;4904675;28;20134;-87
2023/01/23 01:19:31;;;;;;;14.57;5.85;;;4.30;99.90;;;;;;4908511;28;20431;-87
2023/01/23 01:21:57;;;;;;;15.33;6.00;;;4.30;99.90;;;;;;4918809;28;20118;-87
2023/01/23 01:24:23;;;;;;;15.73;5.82;;;4.30;99.90;;;;;;4926646;28;20031;-87
2023/01/23 01:26:49;;;;;;;22.30;7.50;;;4.30;99.90;;;;;;4917736;28;20386;-87
2023/01/23 01:29:15;;;;;;;13.90;6.10;;;4.30;99.90;;;;;;4909772;28;20264;-87
2023/01/23 01:31:41;;;;;;;13.77;6.40;;;4.30;99.90;;;;;;4914885;28;20027;-87
2023/01/23 01:34:07;;;;;;;16.08;6.70;;;4.30;99.90;;;;;;4907248;28;20031;-87
2023/01/23 01:36:32;;;;;;;12.23;5.50;;;4.30;99.90;;;;;;4938028;28;20019;-87
2023/01/23 01:38:58;;;;;;;16.25;6.75;;;4.30;99.90;;;;;;4909182;28;20030;-87
2023/01/23 01:41:24;;;;;;;14.53;6.20;;;4.30;99.90;;;;;;4917428;28;20130;-87
2023/01/23 01:43:52;;;;;;;14.43;6.20;;;4.30;99.90;;;;;;4944623;28;20130;-87
2023/01/23 01:46:22;;;;;;;14.35;6.50;;;4.30;99.90;;;;;;4897479;28;20569;-87
2023/01/23 01:49:04;;;;;;;16.73;6.63;;;4.30;99.90;;;;;;4942108;28;20105;-87
2023/01/23 01:51:33;;;;;;;16.58;6.70;;;4.30;99.90;;;;;;4931861;28;20248;-87
2023/01/23 01:54:23;;;;;;;15.13;6.65;;;4.30;99.90;;;;;;4941821;28;20035;-87
2023/01/23 01:56:59;;;;;;;15.40;5.82;;;4.30;99.90;;;;;;4927559;28;20050;-87
2023/01/23 01:59:28;;;;;;;14.80;6.50;;;4.30;99.90;;;;;;4911517;28;20027;-87
2023/01/23 02:02:03;;;;;;;16.47;6.57;;;4.30;99.90;;;;;;4916412;28;20030;-87
2023/01/23 02:04:32;;;;;;;16.08;6.03;;;4.30;99.90;;;;;;4899907;28;20927;-87
2023/01/23 02:07:01;;;;;;;15.38;6.45;;;4.40;99.90;;;;;;4933928;28;20027;-87
2023/01/23 02:09:27;;;;;;;16.73;6.90;;;4.30;99.90;;;;;;4925146;28;20035;-87
2023/01/23 02:11:53;;;;;;;15.23;6.07;;;4.30;99.90;;;;;;4918665;28;20030;-87
2023/01/23 02:14:19;;;;;;;16.15;6.55;;;4.30;99.90;;;;;;4920579;28;20337;-87
2023/01/23 02:16:49;;;;;;;14.73;6.70;;;4.30;99.90;;;;;;4943125;28;20169;-87
2023/01/23 02:19:25;;;;;;;16.43;6.33;;;4.40;99.90;;;;;;4894004;28;20128;-87
2023/01/23 02:22:02;;;;;;;13.73;6.20;;;4.40;99.90;;;;;;4927842;28;20038;-87
2023/01/23 02:24:41;;;;;;;18.95;7.78;;;4.40;99.90;;;;;;4935026;28;20366;-87
2023/01/23 02:27:07;;;;;;;17.90;6.82;;;4.40;99.90;;;;;;4929283;28;20182;-87
2023/01/23 02:29:44;;;;;;;17.30;7.00;;;4.40;99.90;;;;;;4921254;28;20123;-87
2023/01/23 02:32:10;;;;;;;19.63;7.13;;;4.40;99.90;;;;;;4929621;28;20069;-87
2023/01/23 02:34:36;;;;;;;18.70;7.07;;;4.40;99.90;;;;;;4928898;28;20019;-87
2023/01/23 02:37:03;;;;;;;17.15;6.63;;;4.40;99.90;;;;;;4913504;28;20496;-87
2023/01/23 02:39:29;;;;;;;16.33;6.85;;;4.40;99.90;;;;;;4914513;28;20114;-86
2023/01/23 02:41:55;;;;;;;16.80;7.23;;;4.40;99.90;;;;;;4916135;28;20043;-87
2023/01/23 02:44:27;;;;;;;16.15;6.68;;;4.40;99.90;;;;;;4923954;28;20284;-87
2023/01/23 02:47:00;;;;;;;15.82;6.63;;;4.40;99.90;;;;;;4915956;28;20126;-87
2023/01/23 02:49:27;;;;;;;20.50;6.93;;;4.40;99.90;;;;;;4929746;28;20124;-87
2023/01/23 02:51:54;;;;;;;16.65;6.57;;;4.40;99.90;;;;;;4910124;28;20368;-86
2023/01/23 02:54:21;;;;;;;17.43;7.23;;;4.40;99.90;;;;;;4909773;28;20715;-87
2023/01/23 02:56:47;;;;;;;18.75;7.30;;;4.50;99.90;;;;;;4933584;28;20519;-87
2023/01/23 03:01:57;;;;;;;19.15;6.82;;;4.50;99.90;;;;;;4932120;28;20030;-87
2023/01/23 03:04:23;;;;;;;18.67;7.03;;;4.40;99.90;;;;;;4948087;28;20533;-87
2023/01/23 03:06:49;;;;;;;17.67;7.13;;;4.50;99.90;;;;;;4897927;28;20480;-87
2023/01/23 03:09:16;;;;;;;18.48;7.18;;;4.40;99.90;;;;;;4927706;28;20054;-87
2023/01/23 03:11:44;;;;;;;15.87;6.40;;;4.40;99.90;;;;;;4902592;28;20038;-87
2023/01/23 03:14:14;;;;;;;17.67;7.30;;;4.40;99.90;;;;;;4927777;28;20313;-87
2023/01/23 03:16:41;;;;;;;16.05;7.20;;;4.40;99.90;;;;;;4942931;28;20398;-87
2023/01/23 03:19:09;;;;;;;17.00;6.78;;;4.40;99.90;;;;;;4921870;28;21159;-86
2023/01/23 03:21:41;;;;;;;14.50;6.03;;;4.40;99.90;;;;;;4891977;28;20049;-87
2023/01/23 03:24:12;;;;;;;17.57;7.20;;;4.40;99.90;;;;;;4931298;28;20158;-87
2023/01/23 03:26:42;;;;;;;15.25;6.95;;;4.50;99.90;;;;;;4938399;28;20027;-87
2023/01/23 03:31:58;;;;;;;17.63;7.45;;;4.40;99.90;;;;;;4949657;28;20081;-87
2023/01/23 03:34:23;;;;;;;15.63;6.43;;;4.40;99.90;;;;;;4951184;28;20030;-87
2023/01/23 03:36:49;;;;;;;17.98;7.07;;;4.40;99.90;;;;;;4954139;28;20030;-87
2023/01/23 03:41:59;;;;;;;15.93;6.53;;;4.40;99.90;;;;;;4944654;28;20570;-87
2023/01/23 03:44:25;;;;;;;14.90;6.60;;;4.40;99.90;;;;;;4938610;28;20027;-87
2023/01/23 03:46:51;;;;;;;15.33;7.00;;;4.40;99.90;;;;;;4934960;28;20515;-87
2023/01/23 03:49:17;;;;;;;15.65;6.30;;;4.40;99.90;;;;;;4924169;28;20061;-87
2023/01/23 03:51:43;;;;;;;16.50;6.47;;;4.40;99.90;;;;;;4935468;28;20113;-87
2023/01/23 03:54:10;;;;;;;16.77;6.85;;;4.40;99.90;;;;;;4896776;28;20241;-87
2023/01/23 03:56:36;;;;;;;17.25;7.03;;;4.40;99.90;;;;;;4930692;28;20046;-87
2023/01/23 03:59:02;;;;;;;16.37;6.77;;;4.40;99.90;;;;;;4910730;28;20031;-87
2023/01/23 04:01:28;;;;;;;15.93;6.88;;;4.40;99.90;;;;;;4937492;28;20030;-87
2023/01/23 04:03:54;;;;;;;17.02;6.63;;;4.40;99.90;;;;;;4930408;28;20431;-86
2023/01/23 04:06:20;;;;;;;16.48;7.00;;;4.50;99.90;;;;;;4926670;28;20781;-87
2023/01/23 04:08:45;;;;;;;16.60;6.10;;;4.40;99.90;;;;;;4888958;28;20526;-87
2023/01/23 04:11:12;;;;;;;15.40;6.50;;;4.50;99.90;;;;;;4921097;28;20034;-87
2023/01/23 04:13:38;;;;;;;15.48;6.30;;;4.40;99.90;;;;;;4918423;28;20328;-87
2023/01/23 04:16:05;;;;;;;14.23;6.15;;;4.50;99.90;;;;;;4920487;28;20142;-87
2023/01/23 04:18:31;;;;;;;13.57;5.85;;;4.50;99.90;;;;;;4934323;28;20797;-87
2023/01/23 04:20:57;;;;;;;16.35;6.55;;;4.50;99.90;;;;;;4930213;28;21032;-87
2023/01/23 04:23:24;;;;;;;16.10;6.17;;;4.50;99.90;;;;;;4915629;28;20523;-87
2023/01/23 04:25:51;;;;;;;13.30;5.70;;;4.50;99.90;;;;;;4928231;28;20568;-87
2023/01/23 04:28:17;;;;;;;13.00;5.47;;;4.50;99.90;;;;;;4922944;28;20585;-87
2023/01/23 04:30:43;;;;;;;15.93;6.50;;;4.50;99.90;;;;;;4925805;28;20019;-87
2023/01/23 04:33:08;;;;;;;14.63;6.57;;;4.50;99.90;;;;;;4936948;28;20041;-87
2023/01/23 04:35:34;;;;;;;14.13;5.90;;;4.50;99.90;;;;;;4928969;28;20027;-87
2023/01/23 04:38:00;;;;;;;14.10;5.90;;;4.50;99.90;;;;;;4943464;28;20030;-87
2023/01/23 04:40:26;;;;;;;16.30;6.63;;;4.60;99.90;;;;;;4895494;28;20027;-87
2023/01/23 04:42:52;;;;;;;14.13;5.82;;;4.50;99.90;;;;;;4917075;28;20261;-87
2023/01/23 04:45:18;;;;;;;13.27;5.53;;;4.60;99.90;;;;;;4925579;28;20105;-87
2023/01/23 04:47:43;;;;;;;14.57;5.87;;;4.50;99.90;;;;;;4946713;28;20023;-87
2023/01/23 04:50:10;;;;;;;12.38;5.95;;;4.60;99.90;;;;;;4936264;28;20105;-87
2023/01/23 04:52:36;;;;;;;12.88;5.90;;;4.60;99.90;;;;;;4908144;28;20106;-87
2023/01/23 04:55:02;;;;;;;13.30;6.00;;;4.60;99.90;;;;;;4896923;28;20026;-87
2023/01/23 04:57:27;;;;;;;15.13;5.85;;;4.60;99.90;;;;;;4915818;28;20027;-87
2023/01/23 04:59:53;;;;;;;16.10;5.55;;;4.60;99.90;;;;;;4923508;28;21092;-87
2023/01/23 05:02:19;;;;;;;15.73;6.40;;;4.60;99.90;;;;;;4921910;28;20431;-87
2023/01/23 05:04:45;;;;;;;13.25;6.00;;;4.60;99.90;;;;;;4932346;28;20475;-87
2023/01/23 05:07:12;;;;;;;13.30;6.03;;;4.60;99.90;;;;;;4947590;28;20061;-87
2023/01/23 05:09:40;;;;;;;16.25;6.68;;;4.60;99.90;;;;;;4907564;28;20065;-87
2023/01/23 05:12:06;;;;;;;16.10;6.28;;;4.60;99.90;;;;;;4902836;28;20434;-87
2023/01/23 05:14:32;;;;;;;14.07;6.22;;;4.60;99.90;;;;;;4918472;28;20019;-87
2023/01/23 05:16:58;;;;;;;13.90;6.33;;;4.60;99.90;;;;;;4917791;28;20248;-87
2023/01/23 05:19:24;;;;;;;15.73;6.45;;;4.60;99.90;;;;;;4938762;28;20163;-87
2023/01/23 05:21:49;;;;;;;15.10;6.28;;;4.60;99.90;;;;;;4951251;28;20351;-87
2023/01/23 05:24:15;;;;;;;13.93;6.00;;;4.60;99.90;;;;;;4918505;28;20054;-87
2023/01/23 05:26:41;;;;;;;14.55;6.55;;;4.60;99.90;;;;;;4907543;28;21709;-87
2023/01/23 05:29:07;;;;;;;14.07;6.53;;;4.60;99.90;;;;;;4942004;28;20117;-87
2023/01/23 05:31:33;;;;;;;15.18;5.90;;;4.60;99.90;;;;;;4943821;28;20027;-87
2023/01/23 05:33:59;;;;;;;15.40;6.18;;;4.60;99.90;;;;;;4950758;28;20429;-87
2023/01/23 05:36:25;;;;;;;15.03;6.80;;;4.60;99.90;;;;;;4920393;28;20025;-87
2023/01/23 05:38:51;;;;;;;17.00;6.60;;;4.60;99.90;;;;;;4917490;28;20031;-87
2023/01/23 05:41:16;;;;;;;14.88;6.05;;;4.60;99.90;;;;;;4929224;28;21229;-87
2023/01/23 05:43:42;;;;;;;13.40;5.50;;;4.60;99.90;;;;;;4896262;28;20185;-87
2023/01/23 05:46:08;;;;;;;14.18;6.57;;;4.60;99.90;;;;;;4931433;28;20308;-87
2023/01/23 05:48:34;;;;;;;17.48;6.40;;;4.60;99.90;;;;;;4925341;28;20140;-87
2023/01/23 05:51:03;;;;;;;16.37;6.43;;;4.60;99.90;;;;;;4930818;28;20450;-87
2023/01/23 05:53:29;;;;;;;16.38;6.85;;;4.60;99.90;;;;;;4917768;28;20324;-87
2023/01/23 05:55:55;;;;;;;14.35;6.25;;;4.70;99.90;;;;;;4928390;28;20434;-87
2023/01/23 05:58:21;;;;;;;17.00;6.82;;;4.60;99.90;;;;;;4927393;28;20498;-87
2023/01/23 06:00:46;;;;;;;16.47;6.60;;;4.70;99.90;;;;;;4922014;28;21033;-87
2023/01/23 06:03:12;;;;;;;15.27;6.67;;;4.60;99.90;;;;;;4903301;28;20029;-87
2023/01/23 06:05:40;;;;;;;16.05;6.72;;;4.70;99.90;;;;;;4928568;28;20693;-87
2023/01/23 06:08:06;;;;;;;14.27;6.43;;;4.60;99.90;;;;;;4900372;28;20416;-87
2023/01/23 06:10:32;;;;;;;17.17;6.77;;;4.60;99.90;;;;;;4921310;28;20733;-87
2023/01/23 06:12:58;;;;;;;13.07;5.93;;;4.60;99.90;;;;;;4898047;28;20038;-88
2023/01/23 06:15:24;;;;;;;14.70;6.32;;;4.60;99.90;;;;;;4893520;28;20029;-87
2023/01/23 06:17:50;;;;;;;14.80;6.47;;;4.60;99.90;;;;;;4934251;28;20027;-87
2023/01/23 06:20:16;;;;;;;13.83;5.83;;;4.70;99.90;;;;;;4920514;28;20065;-87
2023/01/23 06:22:41;;;;;;;13.90;6.13;;;4.70;99.90;;;;;;4915033;28;20035;-87
2023/01/23 06:25:08;;;;;;;15.60;6.30;;;4.70;99.90;;;;;;4911708;28;20256;-87
2023/01/23 06:27:34;;;;;;;15.83;6.87;;;4.70;99.90;;;;;;4911803;28;20042;-87
2023/01/23 06:30:00;;;;;;;15.60;6.43;;;4.70;99.90;;;;;;4920958;28;20070;-87
2023/01/23 06:32:25;;;;;;;13.93;6.22;;;4.70;99.90;;;;;;4917629;28;20046;-87
2023/01/23 06:34:51;;;;;;;14.32;5.88;;;4.70;99.90;;;;;;4922021;28;20027;-87
2023/01/23 06:37:17;;;;;;;13.50;6.20;;;4.70;99.90;;;;;;4906506;28;20062;-87
2023/01/23 06:39:43;;;;;;;15.15;6.57;;;4.70;99.90;;;;;;4933902;28;20022;-87
2023/01/23 06:42:09;;;;;;;13.37;5.80;;;4.70;99.90;;;;;;4909160;28;20284;-87
2023/01/23 06:44:36;;;;;;;16.00;6.50;;;4.70;99.90;;;;;;4937650;28;20154;-87
2023/01/23 06:47:02;;;;;;;16.65;6.90;;;4.70;99.90;;;;;;4912515;28;20070;-87
2023/01/23 06:49:27;;;;;;;16.15;6.38;;;4.70;99.90;;;;;;4926228;28;20042;-87
2023/01/23 06:51:53;;;;;;;14.97;5.80;;;4.70;99.90;;;;;;4901201;28;21875;-87
2023/01/23 06:54:19;;;;;;;13.37;5.57;;;4.70;99.90;;;;;;4923762;28;20022;-86
2023/01/23 06:56:45;;;;;;;15.67;6.53;;;4.70;99.90;;;;;;4950523;28;20279;-87
2023/01/23 06:59:10;;;;;;;15.50;6.17;;;4.70;99.90;;;;;;4926623;28;20097;-87
2023/01/23 07:01:36;;;;;;;14.80;6.15;;;4.70;99.90;;;;;;4888261;28;20034;-87
2023/01/23 07:04:01;;;;;;;14.87;5.70;;;4.70;99.90;;;;;;4909574;28;20816;-87
2023/01/23 07:06:29;;;;;;;14.73;6.05;;;4.70;99.90;;;;;;4924803;28;20248;-87
2023/01/23 07:08:55;;;;;;;15.48;6.10;;;4.80;99.90;;;;;;4913897;28;20061;-87
2023/01/23 07:11:20;;;;;;;13.83;6.07;;;4.70;99.90;;;;;;4905738;28;20825;-87
2023/01/23 07:13:46;;;;;;;15.57;6.40;;;4.80;99.90;;;;;;4922545;28;20031;-87
2023/01/23 07:16:12;;;;;;;16.00;6.23;;;4.80;99.90;;;;;;4888989;28;20031;-87
2023/01/23 07:18:37;;;;;;;14.85;6.22;;;4.70;99.90;;;;;;4929378;28;20019;-87
2023/01/23 07:21:05;;;;;;;13.67;6.23;;;4.80;99.90;;;;;;4907198;28;20033;-87
2023/01/23 07:23:32;;;;;;;12.40;5.45;;;4.80;99.90;;;;;;4917448;28;20273;-87
2023/01/23 07:25:59;;;;;;;13.25;5.45;;;4.80;99.90;;;;;;4924768;28;20368;-86
2023/01/23 07:28:25;;;;;;;13.98;5.68;;;4.80;99.90;;;;;;4925800;28;20343;-87
2023/01/23 07:30:51;;;;;;;14.07;6.28;;;4.80;99.90;;;;;;4912696;28;20086;-86
2023/01/23 07:33:17;;;;;;;12.77;5.23;;;4.70;99.90;;;;;;4894514;28;20452;-87
2023/01/23 07:35:42;;;;;;;14.90;5.32;;;4.80;99.90;;;;;;4912566;28;20491;-86
2023/01/23 07:38:08;;;;;;;15.53;6.30;;;4.80;99.90;;;;;;4904247;28;20558;-87
2023/01/23 07:40:35;;;;;;;13.30;5.53;;;4.80;99.90;;;;;;4931088;28;20019;-86
2023/01/23 07:43:00;;;;;;;14.88;6.53;;;4.80;99.90;;;;;;4910228;28;20057;-86
2023/01/23 07:45:26;;;;;;;13.68;6.05;;;4.80;99.90;;;;;;4926860;28;20518;-86
2023/01/23 07:47:52;;;;;;;13.23;5.27;;;4.80;99.90;;;;;;4905774;28;20057;-86
2023/01/23 07:50:17;;;;;;;13.10;5.32;;;4.80;99.90;;;;;;4920757;28;23910;-86
2023/01/23 07:52:43;;;;;;;15.67;5.90;;;4.80;99.90;;;;;;4936594;28;20122;-86
2023/01/23 07:55:09;;;;;;;15.32;5.65;;;4.80;99.90;;;;;;4905392;28;20041;-86
2023/01/23 07:57:35;;;;;;;14.07;5.68;;;4.80;99.90;;;;;;4914896;28;20055;-87
2023/01/23 08:00:01;;;;;;;14.90;6.03;;;4.80;99.90;;;;;;4899462;28;20043;-86
2023/01/23 08:02:26;;;;;;;16.33;6.30;;;4.90;99.90;;;;;;4909921;28;20340;-86
2023/01/23 08:04:52;;;;;;;15.65;6.43;;;4.80;99.90;;;;;;4904436;28;20031;-86
2023/01/23 08:07:18;;;;;;;15.07;6.13;;;4.80;99.90;;;;;;4922403;28;20030;-86
2023/01/23 08:09:44;;;;;;;13.00;5.75;;;4.90;99.90;;;;;;4940663;28;20123;-86
2023/01/23 08:12:11;;;;;;;14.20;5.90;;;4.90;99.90;;;;;;4902661;28;20050;-87
2023/01/23 08:14:38;;;;;;;13.48;6.05;;;4.90;99.90;;;;;;4951001;28;20027;-86
2023/01/23 08:17:04;;;;;;;14.57;6.10;;;4.90;99.90;;;;;;4932144;28;20085;-87
2023/01/23 08:19:30;;;;;;;14.33;6.10;;;4.90;99.90;;;;;;4930363;28;20027;-87
2023/01/23 08:21:55;;;;;;;14.10;6.25;;;4.90;99.90;;;;;;4912235;28;20601;-86
2023/01/23 08:24:21;;;;;;;15.63;5.90;;;4.90;99.90;;;;;;4952449;28;20131;-86
2023/01/23 08:26:47;;;;;;;17.88;6.65;;;4.90;99.90;;;;;;4911600;28;20146;-86
2023/01/23 08:29:13;;;;;;;16.60;6.28;;;4.90;99.90;;;;;;4953750;28;20570;-86
2023/01/23 08:31:38;;;;;;;12.57;5.10;;;4.90;99.90;;;;;;4922936;28;20046;-86
2023/01/23 08:34:05;;;;;;;15.48;6.40;;;4.90;99.90;;;;;;4912971;28;20668;-86
2023/01/23 08:36:31;;;;;;;14.07;5.82;;;5.00;99.90;;;;;;4935728;28;20557;-86
2023/01/23 08:38:57;;;;;;;17.97;7.40;;;5.00;99.90;;;;;;4945942;28;20031;-86
2023/01/23 08:41:23;;;;;;;18.25;7.28;;;5.00;99.90;;;;;;4920898;28;20047;-87
2023/01/23 08:43:49;;;;;;;17.30;6.88;;;5.00;99.90;;;;;;4937709;28;20082;-86
2023/01/23 08:46:15;;;;;;;15.65;6.72;;;5.00;99.90;;;;;;4914301;28;20146;-86
2023/01/23 08:48:41;;;;;;;15.93;6.47;;;5.00;99.90;;;;;;4913015;28;20039;-87
2023/01/23 08:51:10;;;;;;;14.18;6.38;;;5.00;99.90;;;;;;4926601;28;20019;-85
2023/01/23 08:53:36;;;;;;;17.50;6.60;;;5.00;99.90;;;;;;4929057;28;20448;-86
2023/01/23 08:56:14;;;;;;;14.75;6.13;;;5.10;99.90;;;;;;4924287;28;20035;-87
2023/01/23 08:58:39;;;;;;;16.37;6.90;;;5.10;99.90;;;;;;4938097;28;20043;-86
2023/01/23 09:01:13;;;;;;;14.73;6.03;;;5.00;99.90;;;;;;4922723;28;20408;-86
2023/01/23 09:03:39;;;;;;;15.48;5.82;;;5.10;99.90;;;;;;4912142;28;20031;-86
2023/01/23 09:06:05;;;;;;;14.93;6.37;;;5.10;99.90;;;;;;4914779;28;20075;-86
2023/01/23 09:08:32;;;;;;;15.25;6.60;;;5.10;99.90;;;;;;4935024;28;20041;-86
2023/01/23 09:11:02;;;;;;;16.55;6.50;;;5.20;99.90;;;;;;4924137;28;20047;-86
2023/01/23 09:13:29;;;;;;;16.85;7.00;;;5.20;99.90;;;;;;4918325;28;20486;-86
2023/01/23 09:15:54;;;;;;;16.08;6.05;;;5.20;99.90;;;;;;4935266;28;20217;-86
2023/01/23 09:18:21;;;;;;;15.70;5.87;;;5.30;99.90;;;;;;4950809;28;20051;-86
2023/01/23 09:20:48;;;;;;;18.48;7.50;;;5.30;99.90;;;;;;4891732;28;20036;-87
2023/01/23 09:23:14;;;;;;;18.05;7.35;;;5.40;99.90;;;;;;4915037;28;20030;-86
2023/01/23 09:25:39;;;;;;;19.33;7.15;;;5.40;99.90;;;;;;4916266;29;20423;-86
2023/01/23 09:28:05;;;;;;;16.53;6.20;;;5.40;99.90;;;;;;4917854;28;20649;-86
2023/01/23 09:30:31;;;;;;;15.55;6.95;;;5.50;99.90;;;;;;4937925;28;20046;-86
2023/01/23 09:32:57;;;;;;;15.23;5.93;;;5.50;99.90;;;;;;4930128;28;20476;-86
2023/01/23 09:35:23;;;;;;;15.70;6.45;;;5.60;99.90;;;;;;4922389;28;20019;-86
2023/01/23 09:37:58;;;;;;;13.47;5.60;;;5.60;99.90;;;;;;4917800;28;20027;-86
2023/01/23 09:40:28;;;;;;;16.67;6.32;;;5.60;99.90;;;;;;4950809;28;20564;-86
2023/01/23 09:42:57;;;;;;;15.25;6.65;;;5.60;99.90;;;;;;4892405;29;20382;-86
2023/01/23 09:45:26;;;;;;;13.27;5.47;;;5.70;99.90;;;;;;4934761;28;20110;-86
2023/01/23 09:48:08;;;;;;;13.38;5.90;;;5.70;99.90;;;;;;4934315;28;20042;-86
2023/01/23 09:50:39;;;;;;;12.47;5.87;;;5.70;99.90;;;;;;4936121;28;20024;-87
2023/01/23 09:53:12;;;;;;;15.38;6.03;;;5.70;99.90;;;;;;4884058;28;20129;-86
2023/01/23 09:56:03;;;;;;;15.77;6.28;;;5.70;99.90;;;;;;4945597;28;20390;-86
2023/01/23 09:58:40;;;;;;;15.75;6.15;;;5.70;99.90;;;;;;4907660;28;20098;-87
2023/01/23 10:01:11;;;;;;;13.65;6.35;;;5.70;99.90;;;;;;4921227;28;20435;-86
2023/01/23 10:03:37;;;;;;;14.20;6.10;;;5.70;99.90;;;;;;4934363;28;20539;-86
2023/01/23 10:06:23;;;;;;;14.65;6.40;;;5.80;99.90;;;;;;4930627;28;20074;-86
2023/01/23 10:09:13;;;;;;;13.18;5.90;;;5.80;99.90;;;;;;4888623;29;20028;-86
2023/01/23 10:11:58;;;;;;;17.08;7.10;;;5.80;99.90;;;;;;4908972;29;21310;-87
2023/01/23 10:14:51;;;;;;;14.23;6.47;;;5.80;99.90;;;;;;4904610;29;20150;-86
2023/01/23 10:17:47;;;;;;;16.33;7.07;;;5.80;99.90;;;;;;4916961;29;20034;-86
2023/01/23 10:20:45;;;;;;;16.77;6.65;;;5.80;99.90;;;;;;4934035;28;20039;-86
2023/01/23 10:23:41;;;;;;;17.67;6.78;;;5.80;99.90;;;;;;4915150;29;20039;-86
2023/01/23 10:26:30;;;;;;;16.23;6.45;;;5.90;99.90;;;;;;4919550;29;20126;-86
2023/01/23 10:29:33;;;;;;;17.70;7.77;;;5.90;99.90;;;;;;4922707;29;20585;-86
2023/01/23 10:32:01;;;;;;;16.50;7.68;;;5.90;99.90;;;;;;4908723;28;20392;-86
2023/01/23 10:34:54;;;;;;;16.35;7.00;;;5.90;99.90;;;;;;4928185;28;20540;-85
2023/01/23 10:37:41;;;;;;;16.13;7.20;;;5.90;99.90;;;;;;4916620;29;20508;-86
2023/01/23 10:40:15;;;;;;;17.55;7.28;;;5.90;99.90;;;;;;4893863;28;20042;-86
2023/01/23 10:42:42;;;;;;;18.20;7.27;;;6.00;99.90;;;;;;4910063;29;20196;-86
2023/01/23 10:45:19;;;;;;;17.45;7.53;;;6.00;99.90;;;;;;4933925;28;20130;-86
2023/01/23 10:47:47;;;;;;;16.55;7.53;;;6.10;99.90;;;;;;4951478;28;20323;-86
2023/01/23 10:50:13;;;;;;;20.63;7.57;;;6.10;99.90;;;;;;4929891;28;20038;-86
2023/01/23 10:52:43;;;;;;;19.27;7.43;;;6.10;99.90;;;;;;4929326;28;20315;-87
2023/01/23 10:55:18;;;;;;;18.77;7.97;;;6.20;99.90;;;;;;4949112;28;20126;-86
2023/01/23 10:57:52;;;;;;;20.77;7.95;;;6.20;99.90;;;;;;4915361;28;20031;-86
2023/01/23 11:00:36;;;;;;;19.38;8.07;;;6.20;99.90;;;;;;4904995;29;20035;-86
2023/01/23 11:03:32;;;;;;;19.70;7.55;;;6.20;99.90;;;;;;4934905;28;20035;-86
2023/01/23 11:06:08;;;;;;;17.80;7.25;;;6.30;99.90;;;;;;4928454;28;20119;-86
2023/01/23 11:08:36;;;;;;;21.87;8.13;;;6.30;99.90;;;;;;4932499;28;20099;-86
2023/01/23 11:11:14;;;;;;;17.95;7.35;;;6.30;99.90;;;;;;4912949;28;20131;-86
2023/01/23 11:13:42;;;;;;;22.80;8.90;;;6.40;99.90;;;;;;4924616;28;20032;-86
2023/01/23 11:16:21;;;;;;;21.02;8.30;;;6.40;99.90;;;;;;4917950;28;20054;-86
2023/01/23 11:18:54;;;;;;;21.27;8.88;;;6.40;99.90;;;;;;4950883;28;20324;-86
2023/01/23 11:21:22;;;;;;;21.73;8.53;;;6.40;99.90;;;;;;4917261;29;20055;-86
2023/01/23 11:23:47;;;;;;;20.50;8.18;;;6.50;99.90;;;;;;4943596;28;20046;-86
2023/01/23 11:26:33;;;;;;;22.55;8.65;;;6.50;99.90;;;;;;4924830;28;20593;-86
2023/01/23 11:28:59;;;;;;;20.23;8.45;;;6.50;99.90;;;;;;4898333;29;20421;-86
2023/01/23 11:31:26;;;;;;;21.57;8.90;;;6.50;99.90;;;;;;4917394;28;20090;-86
2023/01/23 11:33:58;;;;;;;28.92;11.73;;;6.50;99.90;;;;;;4918920;28;20062;-86
2023/01/23 11:36:53;;;;;;;21.58;8.70;;;6.50;99.90;;;;;;4919950;29;20090;-86
2023/01/23 11:39:37;;;;;;;26.77;10.20;;;6.50;99.90;;;;;;4934013;28;20020;-86
2023/01/23 11:42:03;;;;;;;20.80;8.97;;;6.50;99.90;;;;;;4919645;28;20819;-86
2023/01/23 11:44:30;;;;;;;19.58;8.38;;;6.50;99.90;;;;;;4924806;28;20096;-85
2023/01/23 11:47:03;;;;;;;16.10;6.53;;;6.50;99.90;;;;;;4904257;28;20285;-85
2023/01/23 11:49:40;;;;;;;20.95;8.45;;;6.60;99.90;;;;;;4913815;28;20031;-86
2023/01/23 11:52:27;;;;;;;23.77;9.37;;;6.60;99.90;;;;;;4948452;28;20238;-86
2023/01/23 11:55:02;;;;;;;20.95;8.25;;;6.60;99.90;;;;;;4936052;28;20192;-86
2023/01/23 11:57:55;;;;;;;20.67;8.98;;;6.60;99.90;;;;;;4919281;28;20038;-86
2023/01/23 12:00:33;;;;;;;18.77;7.40;;;6.60;99.90;;;;;;4917288;28;20093;-86
2023/01/23 12:03:10;;;;;;;18.70;7.80;;;6.60;99.90;;;;;;4912763;28;20054;-86
2023/01/23 12:05:54;;;;;;;16.70;6.83;;;6.60;99.90;;;;;;4930979;28;20348;-85
2023/01/23 12:08:19;;;;;;;17.23;7.60;;;6.60;99.90;;;;;;4942454;28;20030;-86
2023/01/23 12:10:48;;;;;;;20.77;7.70;;;6.60;99.90;;;;;;4940446;28;20027;-86
2023/01/23 12:13:22;;;;;;;19.53;7.97;;;6.70;99.90;;;;;;4904485;28;20058;-86
2023/01/23 12:16:14;;;;;;;17.25;7.57;;;6.60;99.90;;;;;;4940284;28;20035;-86
2023/01/23 12:19:13;;;;;;;17.38;7.32;;;6.70;99.90;;;;;;4941748;28;20035;-86
2023/01/23 12:21:56;;;;;;;15.95;5.80;;;6.70;99.90;;;;;;4915761;28;20046;-85
2023/01/23 12:24:36;;;;;;;17.13;7.20;;;6.70;99.90;;;;;;4956292;28;20039;-86
2023/01/23 12:27:11;;;;;;;17.13;7.10;;;6.70;99.90;;;;;;4940111;28;20611;-86
2023/01/23 12:30:03;;;;;;;19.13;7.65;;;6.80;99.90;;;;;;4927818;28;20034;-86
2023/01/23 12:33:11;;;;;;;19.95;8.32;;;6.80;99.90;;;;;;4928963;28;20065;-85
2023/01/23 12:35:56;;;;;;;16.08;6.35;;;6.80;99.90;;;;;;4880536;29;20040;-86
2023/01/23 12:38:42;;;;;;;17.33;7.28;;;6.80;99.90;;;;;;4952697;28;20047;-86
2023/01/23 12:41:19;;;;;;;18.57;6.97;;;6.80;99.90;;;;;;4952605;28;20050;-86
2023/01/23 12:44:03;;;;;;;17.88;7.63;;;6.80;99.90;;;;;;4917512;28;20065;-86
2023/01/23 12:46:39;;;;;;;19.90;8.52;;;6.80;99.90;;;;;;4928305;28;20033;-86
2023/01/23 12:49:46;;;;;;;19.33;8.02;;;6.80;99.90;;;;;;4937558;28;20289;-86
2023/01/23 12:52:27;;;;;;;17.00;7.13;;;6.80;99.90;;;;;;4859563;29;20036;-86
2023/01/23 12:55:15;;;;;;;15.57;7.10;;;6.80;99.90;;;;;;4929792;28;20645;-86
2023/01/23 12:57:50;;;;;;;18.08;6.78;;;6.80;99.90;;;;;;4934887;28;20073;-86
2023/01/23 13:00:34;;;;;;;18.60;7.72;;;6.80;99.90;;;;;;4903822;28;20034;-85
2023/01/23 13:03:20;;;;;;;14.63;6.65;;;6.80;99.90;;;;;;4900701;28;21648;-85
2023/01/23 13:05:55;;;;;;;18.75;7.60;;;6.80;99.90;;;;;;4936625;28;20113;-86
2023/01/23 13:08:28;;;;;;;15.63;6.80;;;6.70;99.90;;;;;;4945032;28;20039;-85
2023/01/23 13:13:56;;;;;;;18.10;7.25;;;6.70;99.90;;;;;;4952102;28;20546;-85
2023/01/23 13:16:29;;;;;;;15.37;6.17;;;6.70;99.90;;;;;;4917412;28;20031;-85
2023/01/23 13:22:11;;;;;;;18.02;6.65;;;6.70;99.90;;;;;;4936467;28;20031;-86
2023/01/23 13:27:41;;;;;;;17.85;6.75;;;6.60;99.90;;;;;;4937962;28;20572;-85
2023/01/23 13:32:48;;;;;;;17.52;7.25;;;6.60;99.90;;;;;;4915642;28;20641;-86
2023/01/23 13:35:43;;;;;;;18.42;7.28;;;6.60;99.90;;;;;;4940682;28;20552;-86
2023/01/23 13:38:21;;;;;;;18.38;7.72;;;6.60;99.90;;;;;;4940618;28;20081;-85
2023/01/23 13:41:03;;;;;;;22.02;8.88;;;6.60;99.90;;;;;;4916072;28;20031;-86
2023/01/23 13:43:40;;;;;;;18.27;7.47;;;6.60;99.90;;;;;;4929365;28;20038;-86
2023/01/23 13:46:25;;;;;;;20.60;8.45;;;6.60;99.90;;;;;;4914875;28;20150;-85
2023/01/23 13:56:37;;;;;;;18.00;7.75;;;6.60;99.90;;;;;;4944334;28;20379;-86
2023/01/23 13:57:39;;;;;;;18.47;7.60;;;6.60;99.90;;;;;;4938788;28;20046;-86
2023/01/23 14:00:12;;;;;;;17.20;6.85;;;6.70;99.90;;;;;;4927697;28;20216;-87
2023/01/23 14:05:30;;;;;;;19.38;7.82;;;6.60;99.90;;;;;;4919505;28;20244;-86
2023/01/23 14:08:05;;;;;;;19.08;7.97;;;6.60;99.90;;;;;;4924564;28;20031;-86